Time;durP1;ratioP1;P1;durP2;ratioP2;P2;SDS_P1;SDS_P2;PMS_P1;PMS_P2;Temp;Humidity;BMP_temperature;BMP_pressure;BME280_temperature;BME280_humidity;BME280_pressure;Samples;Min_cycle;Max_cycle;Signal;HPM_P1;HPM_P2
2022/11/09 00:02:23;;;;;;;1999.90;999.90;;;10.70;99.90;;;;;;5072047;28;20933;-67
2022/11/09 00:04:50;;;;;;;1999.90;999.90;;;10.70;99.90;;;;;;5072211;28;20443;-68
2022/11/09 00:07:16;;;;;;;1999.90;999.90;;;10.80;99.90;;;;;;5071857;28;20450;-68
2022/11/09 00:09:45;;;;;;;1999.90;999.90;;;10.80;99.90;;;;;;5072472;28;20463;-68
2022/11/09 00:12:11;;;;;;;1999.90;999.90;;;10.90;99.90;;;;;;5071819;28;20443;-68
2022/11/09 00:14:38;;;;;;;1999.90;999.90;;;10.90;99.90;;;;;;5072650;28;20451;-68
2022/11/09 00:17:05;;;;;;;1999.90;999.90;;;10.90;99.90;;;;;;5072371;28;20478;-69
2022/11/09 00:19:32;;;;;;;1999.90;999.90;;;11.00;99.90;;;;;;5072036;28;20467;-69
2022/11/09 00:21:58;;;;;;;1999.90;999.90;;;11.00;99.90;;;;;;5071547;28;20439;-68
2022/11/09 00:24:25;;;;;;;1999.90;999.90;;;11.00;99.90;;;;;;5072072;28;20455;-69
2022/11/09 00:26:53;;;;;;;1999.90;999.90;;;11.00;99.90;;;;;;5071770;28;20443;-68
2022/11/09 00:29:20;;;;;;;1999.90;999.90;;;11.00;99.90;;;;;;5071904;28;20447;-68
2022/11/09 00:31:47;;;;;;;1999.90;999.90;;;11.00;99.90;;;;;;5071565;28;20453;-69
2022/11/09 00:34:14;;;;;;;1999.90;999.90;;;11.00;99.90;;;;;;5071594;28;20517;-68
2022/11/09 00:36:41;;;;;;;1999.90;999.90;;;10.90;99.90;;;;;;5071726;28;20820;-69
2022/11/09 00:39:08;;;;;;;1999.90;999.90;;;10.90;99.90;;;;;;5071603;28;20482;-68
2022/11/09 00:41:35;;;;;;;1999.90;999.90;;;11.00;99.90;;;;;;5071647;28;20820;-68
2022/11/09 00:44:04;;;;;;;1999.90;999.90;;;11.00;99.90;;;;;;5071437;28;20987;-68
2022/11/09 00:46:31;;;;;;;1999.90;999.90;;;11.00;99.90;;;;;;5071762;28;20451;-68
2022/11/09 00:48:57;;;;;;;1999.90;999.90;;;10.90;99.90;;;;;;5071677;28;20448;-68
2022/11/09 00:51:25;;;;;;;1999.90;999.90;;;10.90;99.90;;;;;;5071304;28;20463;-68
2022/11/09 00:53:53;;;;;;;1999.90;999.90;;;10.80;99.90;;;;;;5071499;28;20451;-68
2022/11/09 00:56:20;;;;;;;1999.90;999.90;;;10.90;99.90;;;;;;5071988;28;20482;-68
2022/11/09 00:58:47;;;;;;;1999.90;999.90;;;10.90;99.90;;;;;;5071756;28;20564;-68
2022/11/09 01:01:17;;;;;;;1999.90;999.90;;;10.80;99.90;;;;;;5071459;28;20477;-69
2022/11/09 01:04:01;;;;;;;1999.90;999.90;;;10.90;99.90;;;;;;5070850;28;20451;-67
2022/11/09 01:06:28;;;;;;;1999.90;999.90;;;10.90;99.90;;;;;;5069269;28;20439;-68
2022/11/09 01:08:54;;;;;;;1999.90;999.90;;;10.90;99.90;;;;;;5071393;28;20439;-69
2022/11/09 01:11:22;;;;;;;1999.90;999.90;;;10.90;99.90;;;;;;5070951;28;20831;-68
2022/11/09 01:13:49;;;;;;;1999.90;999.90;;;10.90;99.90;;;;;;5070812;28;20809;-68
2022/11/09 01:16:20;;;;;;;1999.90;999.90;;;10.90;99.90;;;;;;5070599;28;20451;-68
2022/11/09 01:18:47;;;;;;;1999.90;999.90;;;10.90;99.90;;;;;;5070084;28;20846;-68
2022/11/09 01:21:15;;;;;;;1999.90;999.90;;;10.90;99.90;;;;;;5070818;28;20474;-69
2022/11/09 01:23:42;;;;;;;1999.90;999.90;;;10.90;99.90;;;;;;5070495;28;20439;-68
2022/11/09 01:26:12;;;;;;;1999.90;999.90;;;11.00;99.90;;;;;;5070749;28;20963;-68
2022/11/09 01:28:39;;;;;;;1999.90;999.90;;;11.00;99.90;;;;;;5070550;28;20470;-68
2022/11/09 01:31:08;;;;;;;1999.90;999.90;;;11.10;99.90;;;;;;5070381;28;20470;-68
2022/11/09 01:33:36;;;;;;;1999.90;999.90;;;11.20;99.90;;;;;;5070064;28;20455;-69
2022/11/09 01:36:04;;;;;;;1999.90;999.90;;;11.30;99.90;;;;;;5070470;28;20963;-69
2022/11/09 01:38:31;;;;;;;1999.90;999.90;;;11.30;99.90;;;;;;5070512;28;20475;-68
2022/11/09 01:40:58;;;;;;;1999.90;999.90;;;11.40;99.90;;;;;;5070142;28;20467;-68
2022/11/09 01:43:25;;;;;;;1999.90;999.90;;;11.40;99.90;;;;;;5070037;28;21265;-68
2022/11/09 01:45:56;;;;;;;1999.90;999.90;;;11.50;99.90;;;;;;5070200;28;20450;-68
2022/11/09 01:48:33;;;;;;;1999.90;999.90;;;11.50;99.90;;;;;;5070773;28;20449;-68
2022/11/09 01:51:05;;;;;;;1999.90;999.90;;;11.60;99.90;;;;;;5070233;28;20474;-68
2022/11/09 01:53:36;;;;;;;1999.90;999.90;;;11.70;99.90;;;;;;5069901;28;20449;-68
2022/11/09 01:56:07;;;;;;;1999.90;999.90;;;11.70;99.90;;;;;;5070044;28;20443;-68
2022/11/09 01:58:39;;;;;;;1999.90;999.90;;;11.70;99.90;;;;;;5069840;28;20570;-67
2022/11/09 02:01:09;;;;;;;1999.90;999.90;;;11.70;99.90;;;;;;5069975;28;20463;-68
2022/11/09 02:03:40;;;;;;;1999.90;999.90;;;11.80;99.90;;;;;;5070176;28;20874;-69
2022/11/09 02:06:11;;;;;;;1999.90;999.90;;;11.80;99.90;;;;;;5070145;28;20447;-68
2022/11/09 02:08:39;;;;;;;1999.90;999.90;;;11.70;99.90;;;;;;5069752;28;20440;-68
2022/11/09 02:11:09;;;;;;;1999.90;999.90;;;11.80;99.90;;;;;;5069501;28;20470;-68
2022/11/09 02:13:38;;;;;;;1999.90;999.90;;;11.70;99.90;;;;;;5069877;28;20454;-68
2022/11/09 02:16:06;;;;;;;1999.90;999.90;;;11.70;99.90;;;;;;5069986;28;20450;-68
2022/11/09 02:18:34;;;;;;;1999.90;999.90;;;11.70;99.90;;;;;;5069940;28;20470;-68
2022/11/09 02:21:02;;;;;;;1999.90;999.90;;;11.70;99.90;;;;;;5069393;28;20471;-68
2022/11/09 02:23:29;;;;;;;1999.90;999.90;;;11.80;99.90;;;;;;5069427;28;20439;-68
2022/11/09 02:26:01;;;;;;;1999.90;999.90;;;11.80;99.90;;;;;;5069792;28;20447;-69
2022/11/09 02:28:28;;;;;;;1999.90;999.90;;;11.90;99.90;;;;;;5069319;28;20448;-68
2022/11/09 02:30:56;;;;;;;1999.90;999.90;;;11.90;99.90;;;;;;5069637;28;20544;-68
2022/11/09 02:33:24;;;;;;;1999.90;999.90;;;11.80;99.90;;;;;;5069199;28;20451;-68
2022/11/09 02:35:51;;;;;;;1999.90;999.90;;;11.80;99.90;;;;;;5069616;28;20442;-68
2022/11/09 02:38:19;;;;;;;1999.90;999.90;;;11.90;99.90;;;;;;5069430;28;20478;-69
2022/11/09 02:40:49;;;;;;;1999.90;999.90;;;11.90;99.90;;;;;;5069434;28;20470;-68
2022/11/09 02:43:17;;;;;;;1999.90;999.90;;;11.90;99.90;;;;;;5069585;28;20447;-68
2022/11/09 02:45:44;;;;;;;1999.90;999.90;;;12.00;99.90;;;;;;5069601;28;20438;-68
2022/11/09 02:48:11;;;;;;;1999.90;999.90;;;12.00;99.90;;;;;;5069355;28;20454;-68
2022/11/09 02:50:38;;;;;;;1999.90;999.90;;;12.00;99.90;;;;;;5069305;28;20474;-68
2022/11/09 02:53:05;;;;;;;1999.90;999.90;;;12.00;99.90;;;;;;5069434;28;20536;-68
2022/11/09 02:55:33;;;;;;;1999.90;999.90;;;12.00;99.90;;;;;;5069670;28;20992;-68
2022/11/09 02:58:00;;;;;;;1999.90;999.90;;;12.00;99.90;;;;;;5069522;28;21143;-68
2022/11/09 03:00:27;;;;;;;1999.90;999.90;;;12.00;99.90;;;;;;5069424;28;20471;-68
2022/11/09 03:02:54;;;;;;;1999.90;999.90;;;12.00;99.90;;;;;;5069434;28;20439;-69
2022/11/09 03:05:21;;;;;;;1999.90;999.90;;;12.00;99.90;;;;;;5069853;28;20447;-68
2022/11/09 03:07:48;;;;;;;1999.90;999.90;;;12.00;99.90;;;;;;5069959;28;20447;-69
2022/11/09 03:10:14;;;;;;;1999.90;999.90;;;12.00;99.90;;;;;;5069684;28;20463;-68
2022/11/09 03:12:42;;;;;;;1999.90;999.90;;;12.00;99.90;;;;;;5069282;28;20466;-68
2022/11/09 03:15:10;;;;;;;1999.90;999.90;;;12.00;99.90;;;;;;5069253;28;20454;-68
2022/11/09 03:17:37;;;;;;;1999.90;999.90;;;12.00;99.90;;;;;;5069142;28;20810;-69
2022/11/09 03:20:04;;;;;;;1999.90;999.90;;;12.00;99.90;;;;;;5069354;28;20467;-68
2022/11/09 03:22:31;;;;;;;1999.90;999.90;;;11.90;99.90;;;;;;5069064;28;20450;-68
2022/11/09 03:24:58;;;;;;;1999.90;999.90;;;11.70;99.90;;;;;;5069287;28;20450;-69
2022/11/09 03:27:25;;;;;;;1999.90;999.90;;;11.60;99.90;;;;;;5069244;28;20450;-68
2022/11/09 03:29:53;;;;;;;1999.90;999.90;;;11.40;99.90;;;;;;5068974;28;20470;-68
2022/11/09 03:32:19;;;;;;;1999.90;999.90;;;11.30;99.90;;;;;;5068838;28;20447;-68
2022/11/09 03:34:48;;;;;;;1999.90;999.90;;;11.30;99.90;;;;;;5069094;28;20459;-68
2022/11/09 03:37:14;;;;;;;1999.90;999.90;;;11.20;99.90;;;;;;5069249;28;20873;-67
2022/11/09 03:39:41;;;;;;;1999.90;999.90;;;11.20;99.90;;;;;;5068888;28;21217;-67
2022/11/09 03:42:08;;;;;;;1999.90;999.90;;;11.20;99.90;;;;;;5071893;28;20450;-68
2022/11/09 03:44:34;;;;;;;1999.90;999.90;;;11.10;99.90;;;;;;5072621;28;20462;-67
2022/11/09 03:47:02;;;;;;;1999.90;999.90;;;10.90;99.90;;;;;;5072428;28;20463;-68
2022/11/09 03:49:29;;;;;;;1999.90;999.90;;;10.70;99.90;;;;;;5072653;28;20458;-67
2022/11/09 03:51:56;;;;;;;1999.90;999.90;;;10.60;99.90;;;;;;5072391;28;20450;-67
2022/11/09 03:54:23;;;;;;;1999.90;999.90;;;10.60;99.90;;;;;;5072684;28;20451;-67
2022/11/09 03:56:49;;;;;;;1999.90;999.90;;;10.60;99.90;;;;;;5072161;28;20956;-68
2022/11/09 03:59:16;;;;;;;1999.90;999.90;;;10.70;99.90;;;;;;5072116;28;20561;-67
2022/11/09 04:01:43;;;;;;;1999.90;999.90;;;10.60;99.90;;;;;;5072235;28;20450;-67
2022/11/09 04:04:11;;;;;;;1999.90;999.90;;;10.50;99.90;;;;;;5072522;28;20455;-67
2022/11/09 04:06:38;;;;;;;1999.90;999.90;;;10.50;99.90;;;;;;5072553;28;20451;-67
2022/11/09 04:09:04;;;;;;;1999.90;999.90;;;10.40;99.90;;;;;;5072266;28;20441;-67
2022/11/09 04:11:31;;;;;;;1999.90;999.90;;;10.40;99.90;;;;;;5071793;28;20459;-68
2022/11/09 04:13:58;;;;;;;1999.90;999.90;;;10.40;99.90;;;;;;5072207;28;20447;-68
2022/11/09 04:16:25;;;;;;;1999.90;999.90;;;10.30;99.90;;;;;;5072437;28;20930;-67
2022/11/09 04:18:51;;;;;;;1999.90;999.90;;;10.30;99.90;;;;;;5072450;28;20861;-68
2022/11/09 04:21:20;;;;;;;1999.90;999.90;;;10.40;99.90;;;;;;5071951;28;20470;-68
2022/11/09 04:23:48;;;;;;;1999.90;999.90;;;10.50;99.90;;;;;;5071631;28;20450;-67
2022/11/09 04:26:15;;;;;;;1999.90;999.90;;;10.50;99.90;;;;;;5071950;28;20500;-68
2022/11/09 04:28:41;;;;;;;1999.90;999.90;;;10.60;99.90;;;;;;5071659;28;20462;-68
2022/11/09 04:31:08;;;;;;;1999.90;999.90;;;10.60;99.90;;;;;;5071917;28;20462;-68
2022/11/09 04:33:35;;;;;;;1999.90;999.90;;;10.70;99.90;;;;;;5071616;28;21091;-68
2022/11/09 04:36:02;;;;;;;1999.90;999.90;;;10.80;99.90;;;;;;5071629;28;20443;-68
2022/11/09 04:38:30;;;;;;;1999.90;999.90;;;10.90;99.90;;;;;;5071578;28;21000;-68
2022/11/09 04:41:00;;;;;;;1999.90;999.90;;;10.90;99.90;;;;;;5071163;28;20455;-68
2022/11/09 04:43:27;;;;;;;1999.90;999.90;;;10.90;99.90;;;;;;5071447;28;20473;-68
2022/11/09 04:45:54;;;;;;;1999.90;999.90;;;10.80;99.90;;;;;;5071498;28;20933;-69
2022/11/09 04:48:21;;;;;;;1999.90;999.90;;;10.80;99.90;;;;;;5071470;28;20473;-68
2022/11/09 04:50:48;;;;;;;1999.90;999.90;;;10.90;99.90;;;;;;5071308;28;20463;-68
2022/11/09 04:53:15;;;;;;;1999.90;999.90;;;10.90;99.90;;;;;;5070828;28;20447;-68
2022/11/09 04:55:43;;;;;;;1999.90;999.90;;;11.00;99.90;;;;;;5071566;28;20451;-68
2022/11/09 04:58:11;;;;;;;1999.90;999.90;;;11.00;99.90;;;;;;5071493;28;20443;-68
2022/11/09 05:00:38;;;;;;;1999.90;999.90;;;11.00;99.90;;;;;;5070908;28;20467;-68
2022/11/09 05:03:06;;;;;;;1999.90;999.90;;;10.90;99.90;;;;;;5070711;28;20447;-68
2022/11/09 05:05:33;;;;;;;1999.90;999.90;;;10.90;99.90;;;;;;5071270;28;20850;-68
2022/11/09 05:08:00;;;;;;;1999.90;999.90;;;10.80;99.90;;;;;;5071209;28;20451;-68
2022/11/09 05:10:27;;;;;;;1999.90;999.90;;;10.70;99.90;;;;;;5071034;28;20470;-68
2022/11/09 05:12:58;;;;;;;1999.90;999.90;;;10.80;99.90;;;;;;5070865;28;20451;-68
2022/11/09 05:15:25;;;;;;;1999.90;999.90;;;10.70;99.90;;;;;;5070958;28;20483;-68
2022/11/09 05:17:52;;;;;;;1999.90;999.90;;;10.70;99.90;;;;;;5071074;28;20439;-68
2022/11/09 05:20:19;;;;;;;1999.90;999.90;;;10.70;99.90;;;;;;5070704;28;21000;-68
2022/11/09 05:25:31;;;;;;;1999.90;999.90;;;10.60;99.90;;;;;;5071073;28;20955;-68
2022/11/09 05:27:59;;;;;;;1999.90;999.90;;;10.60;99.90;;;;;;5070729;28;20952;-69
2022/11/09 05:30:25;;;;;;;1999.90;999.90;;;10.60;99.90;;;;;;5070527;28;20997;-69
2022/11/09 05:32:52;;;;;;;1999.90;999.90;;;10.70;99.90;;;;;;5070296;28;20447;-68
2022/11/09 05:35:19;;;;;;;1999.90;999.90;;;10.70;99.90;;;;;;5070711;28;20458;-68
2022/11/09 05:37:48;;;;;;;1999.90;999.90;;;10.70;99.90;;;;;;5070744;28;20448;-68
2022/11/09 05:40:16;;;;;;;1999.90;999.90;;;10.60;99.90;;;;;;5070469;28;20486;-68
2022/11/09 05:42:43;;;;;;;1999.90;999.90;;;10.60;99.90;;;;;;5069983;28;20443;-68
2022/11/09 05:45:14;;;;;;;1999.90;999.90;;;10.70;99.90;;;;;;5070410;28;20447;-68
2022/11/09 05:47:42;;;;;;;1999.90;999.90;;;10.70;99.90;;;;;;5070209;28;21006;-68
2022/11/09 05:50:11;;;;;;;1999.90;999.90;;;10.70;99.90;;;;;;5070132;28;20462;-69
2022/11/09 05:52:37;;;;;;;1999.90;999.90;;;10.80;99.90;;;;;;5069943;28;20450;-68
2022/11/09 05:55:05;;;;;;;1999.90;999.90;;;10.90;99.90;;;;;;5070222;28;20537;-68
2022/11/09 05:57:32;;;;;;;1999.90;999.90;;;10.90;99.90;;;;;;5070230;28;20446;-68
2022/11/09 05:59:59;;;;;;;1999.90;999.90;;;11.00;99.90;;;;;;5084984;28;21026;-67
2022/11/09 06:02:30;;;;;;;1999.90;999.90;;;10.90;99.90;;;;;;5083070;28;20476;-69
2022/11/09 06:04:58;;;;;;;1999.90;999.90;;;11.00;99.90;;;;;;5079284;28;20840;-69
2022/11/09 06:07:24;;;;;;;1999.90;999.90;;;11.00;99.90;;;;;;5074708;28;20534;-67
2022/11/09 06:09:51;;;;;;;1999.90;999.90;;;11.00;99.90;;;;;;5077416;28;21063;-67
2022/11/09 06:12:18;;;;;;;1999.90;999.90;;;11.10;99.90;;;;;;5083317;28;20844;-68
2022/11/09 06:14:45;;;;;;;1999.90;999.90;;;11.10;99.90;;;;;;5078444;28;20458;-68
2022/11/09 06:17:11;;;;;;;1999.90;999.90;;;11.10;99.90;;;;;;5083591;28;20823;-69
2022/11/09 06:19:40;;;;;;;1999.90;999.90;;;11.10;99.90;;;;;;5088534;28;20846;-68
2022/11/09 06:22:06;;;;;;;1999.90;999.90;;;11.00;99.90;;;;;;5087914;28;20452;-68
2022/11/09 06:24:33;;;;;;;1999.90;999.90;;;11.00;99.90;;;;;;5088565;28;20457;-68
2022/11/09 06:27:01;;;;;;;1999.90;999.90;;;11.00;99.90;;;;;;5089785;28;20450;-68
2022/11/09 06:29:27;;;;;;;1999.90;999.90;;;11.10;99.90;;;;;;5088759;28;20919;-68
2022/11/09 06:31:54;;;;;;;1999.90;999.90;;;11.00;99.90;;;;;;5089109;28;20457;-68
2022/11/09 06:34:21;;;;;;;1999.90;999.90;;;11.10;99.90;;;;;;5089662;28;20465;-69
2022/11/09 06:36:49;;;;;;;1999.90;999.90;;;11.10;99.90;;;;;;5088431;28;20827;-68
2022/11/09 06:39:16;;;;;;;1999.90;999.90;;;11.00;99.90;;;;;;5089751;28;20493;-68
2022/11/09 06:41:43;;;;;;;1999.90;999.90;;;11.00;99.90;;;;;;5089201;28;20443;-68
2022/11/09 06:44:09;;;;;;;1999.90;999.90;;;11.00;99.90;;;;;;5089873;28;20472;-69
2022/11/09 06:46:36;;;;;;;1999.90;999.90;;;11.00;99.90;;;;;;5089793;28;20446;-69
2022/11/09 06:49:03;;;;;;;1999.90;999.90;;;11.00;99.90;;;;;;5089499;28;20960;-69
2022/11/09 06:51:30;;;;;;;1999.90;999.90;;;11.00;99.90;;;;;;5089469;28;20469;-68
2022/11/09 06:53:58;;;;;;;1999.90;999.90;;;11.00;99.90;;;;;;5089233;28;20966;-69
2022/11/09 06:56:25;;;;;;;1999.90;999.90;;;11.00;99.90;;;;;;5089600;28;20822;-68
2022/11/09 06:58:51;;;;;;;1999.90;999.90;;;11.10;99.90;;;;;;5089350;28;20849;-68
2022/11/09 07:01:21;;;;;;;1999.90;999.90;;;11.10;99.90;;;;;;5088383;28;20872;-68
2022/11/09 07:03:48;;;;;;;1999.90;999.90;;;11.10;99.90;;;;;;5089379;28;20469;-68
2022/11/09 07:06:14;;;;;;;1999.90;999.90;;;11.10;99.90;;;;;;5089313;28;20834;-67
2022/11/09 07:08:41;;;;;;;1999.90;999.90;;;11.10;99.90;;;;;;5089469;28;20854;-68
2022/11/09 07:11:11;;;;;;;1999.90;999.90;;;11.10;99.90;;;;;;5089453;28;20467;-68
2022/11/09 07:13:38;;;;;;;1999.90;999.90;;;11.10;99.90;;;;;;5089495;28;20434;-68
2022/11/09 07:16:06;;;;;;;1999.90;999.90;;;11.20;99.90;;;;;;5092835;28;20442;-68
2022/11/09 07:18:33;;;;;;;1999.90;999.90;;;11.10;99.90;;;;;;5093421;28;20941;-68
2022/11/09 07:21:00;;;;;;;1999.90;999.90;;;11.10;99.90;;;;;;5093015;28;20481;-68
2022/11/09 07:23:27;;;;;;;1999.90;999.90;;;11.10;99.90;;;;;;5093397;28;20477;-67
2022/11/09 07:25:54;;;;;;;1999.90;999.90;;;11.00;99.90;;;;;;5093482;28;20445;-68
2022/11/09 07:28:22;;;;;;;1999.90;999.90;;;11.00;99.90;;;;;;5093401;28;20457;-68
2022/11/09 07:30:51;;;;;;;1999.90;999.90;;;11.00;99.90;;;;;;5093096;28;20462;-68
2022/11/09 07:33:19;;;;;;;1999.90;999.90;;;11.10;99.90;;;;;;5093010;28;20537;-68
2022/11/09 07:35:46;;;;;;;1999.90;999.90;;;11.20;99.90;;;;;;5093087;28;20442;-68
2022/11/09 07:38:14;;;;;;;1999.90;999.90;;;11.40;99.90;;;;;;5093384;28;20441;-68
2022/11/09 07:40:41;;;;;;;1999.90;999.90;;;11.50;99.90;;;;;;5093038;28;20543;-69
2022/11/09 07:43:08;;;;;;;1999.90;999.90;;;11.50;99.90;;;;;;5093012;28;20438;-67
2022/11/09 07:45:36;;;;;;;1999.90;999.90;;;11.60;99.90;;;;;;5093302;28;20446;-68
2022/11/09 07:48:05;;;;;;;1999.90;999.90;;;11.50;99.90;;;;;;5093094;28;20442;-68
2022/11/09 07:50:33;;;;;;;1999.90;999.90;;;11.50;99.90;;;;;;5093335;28;20473;-68
2022/11/09 07:53:01;;;;;;;1999.90;999.90;;;11.60;99.90;;;;;;5092764;28;20438;-68
2022/11/09 07:55:30;;;;;;;1999.90;999.90;;;11.60;99.90;;;;;;5093004;28;20449;-68
2022/11/09 07:57:57;;;;;;;1999.90;999.90;;;11.70;99.90;;;;;;5092748;28;20442;-68
2022/11/09 08:00:24;;;;;;;1999.90;999.90;;;11.80;99.90;;;;;;5092538;28;20482;-68
2022/11/09 08:02:52;;;;;;;1999.90;999.90;;;11.80;99.90;;;;;;5092113;28;20441;-68
2022/11/09 08:05:19;;;;;;;1999.90;999.90;;;11.80;99.90;;;;;;5092734;28;20438;-68
2022/11/09 08:07:45;;;;;;;1999.90;999.90;;;11.90;99.90;;;;;;5089684;28;20454;-67
2022/11/09 08:10:13;;;;;;;1999.90;999.90;;;12.00;99.90;;;;;;5086317;28;20967;-68
2022/11/09 08:12:40;;;;;;;1999.90;999.90;;;12.10;99.90;;;;;;5086206;28;20817;-68
2022/11/09 08:15:07;;;;;;;1999.90;999.90;;;12.20;99.90;;;;;;5092222;28;20452;-68
2022/11/09 08:17:34;;;;;;;1999.90;999.90;;;12.30;99.90;;;;;;5092235;28;20442;-68
2022/11/09 08:20:02;;;;;;;1999.90;999.90;;;12.30;99.90;;;;;;5092275;28;20486;-68
2022/11/09 08:22:29;;;;;;;1999.90;999.90;;;12.40;99.90;;;;;;5091972;28;20449;-67
2022/11/09 08:24:56;;;;;;;1999.90;999.90;;;12.50;99.90;;;;;;5091774;28;20457;-68
2022/11/09 08:27:23;;;;;;;1999.90;999.90;;;12.50;99.90;;;;;;5088200;28;20450;-68
2022/11/09 08:29:49;;;;;;;1999.90;999.90;;;12.50;99.90;;;;;;5088555;28;20458;-68
2022/11/09 08:32:16;;;;;;;1999.90;999.90;;;12.50;99.90;;;;;;5071814;28;20443;-67
2022/11/09 08:34:47;;;;;;;1999.90;999.90;;;12.60;99.90;;;;;;5071484;28;20454;-68
2022/11/09 08:37:15;;;;;;;1999.90;999.90;;;12.60;99.90;;;;;;5071458;28;20439;-67
2022/11/09 08:39:42;;;;;;;1999.90;999.90;;;12.60;99.90;;;;;;5071178;28;20491;-68
2022/11/09 08:42:08;;;;;;;1999.90;999.90;;;12.60;99.90;;;;;;5070887;28;20447;-68
2022/11/09 08:44:35;;;;;;;1999.90;999.90;;;12.60;99.90;;;;;;5071263;28;20443;-68
2022/11/09 08:47:02;;;;;;;1999.90;999.90;;;12.50;99.90;;;;;;5071408;28;20443;-69
2022/11/09 08:49:28;;;;;;;1999.90;999.90;;;12.50;99.90;;;;;;5071306;28;20447;-68
2022/11/09 08:51:55;;;;;;;1999.90;999.90;;;12.50;99.90;;;;;;5070974;28;20447;-68
2022/11/09 08:54:24;;;;;;;1999.90;999.90;;;12.40;99.90;;;;;;5071123;28;20439;-68
2022/11/09 08:56:50;;;;;;;1999.90;999.90;;;12.50;99.90;;;;;;5071037;28;20459;-68
2022/11/09 08:59:17;;;;;;;1999.90;999.90;;;12.50;99.90;;;;;;5070945;28;20819;-68
2022/11/09 09:01:44;;;;;;;1999.90;999.90;;;12.70;99.90;;;;;;5070908;28;20806;-67
2022/11/09 09:04:11;;;;;;;1999.90;999.90;;;12.80;99.90;;;;;;5070862;28;20462;-68
2022/11/09 09:06:38;;;;;;;1999.90;999.90;;;13.00;99.90;;;;;;5071286;28;20449;-68
2022/11/09 09:09:04;;;;;;;1999.90;999.90;;;13.10;99.90;;;;;;5070957;28;20458;-68
2022/11/09 09:11:32;;;;;;;1999.90;999.90;;;13.30;99.90;;;;;;5070576;28;20472;-68
2022/11/09 09:13:59;;;;;;;1999.90;999.90;;;13.20;99.90;;;;;;5070858;28;20478;-68
2022/11/09 09:16:26;;;;;;;1999.90;999.90;;;13.30;99.90;;;;;;5071020;28;20455;-68
2022/11/09 09:18:53;;;;;;;1999.90;999.90;;;13.20;99.90;;;;;;5070624;28;20466;-68
2022/11/09 09:21:19;;;;;;;1999.90;999.90;;;13.20;99.90;;;;;;5070424;28;20484;-68
2022/11/09 09:23:48;;;;;;;1999.90;999.90;;;13.10;99.90;;;;;;5070868;28;20443;-68
2022/11/09 09:26:14;;;;;;;1999.90;999.90;;;13.00;99.90;;;;;;5070343;28;20504;-68
2022/11/09 09:28:43;;;;;;;1999.90;999.90;;;13.00;99.90;;;;;;5070451;28;20439;-68
2022/11/09 09:31:10;;;;;;;1999.90;999.90;;;13.00;99.90;;;;;;5069988;28;20463;-68
2022/11/09 09:33:37;;;;;;;1999.90;999.90;;;13.00;99.90;;;;;;5070058;28;20451;-69
2022/11/09 09:36:04;;;;;;;1999.90;999.90;;;13.00;99.90;;;;;;5070387;28;20439;-69
2022/11/09 09:38:31;;;;;;;1999.90;999.90;;;13.00;99.90;;;;;;5069628;28;20447;-69
2022/11/09 09:40:59;;;;;;;1999.90;999.90;;;12.90;99.90;;;;;;5069864;28;20489;-68
2022/11/09 09:43:33;;;;;;;1999.90;999.90;;;13.00;99.90;;;;;;5070606;28;20451;-68
2022/11/09 09:46:04;;;;;;;1999.90;999.90;;;13.00;99.90;;;;;;5070462;28;20942;-68
2022/11/09 09:48:38;;;;;;;1999.90;999.90;;;13.00;99.90;;;;;;5070202;28;20443;-69
2022/11/09 09:51:11;;;;;;;1999.90;999.90;;;13.10;99.90;;;;;;5069949;28;20466;-68
2022/11/09 09:53:45;;;;;;;1999.90;999.90;;;13.30;99.90;;;;;;5070383;28;20525;-68
2022/11/09 09:56:16;;;;;;;1999.90;999.90;;;13.50;99.90;;;;;;5070333;28;20960;-69
2022/11/09 09:58:49;;;;;;;1999.90;999.90;;;13.70;99.90;;;;;;5070133;28;20458;-68
2022/11/09 10:01:19;;;;;;;1999.90;999.90;;;13.80;99.90;;;;;;5069770;28;20877;-69
2022/11/09 10:03:47;;;;;;;1999.90;999.90;;;14.00;99.90;;;;;;5069655;28;20451;-68
2022/11/09 10:06:36;;;;;;;1999.90;999.90;;;14.10;99.90;;;;;;5070305;28;20450;-68
2022/11/09 10:09:13;;;;;;;1999.90;999.90;;;14.20;99.90;;;;;;5070282;28;20447;-68
2022/11/09 10:11:48;;;;;;;1999.90;999.90;;;14.20;99.90;;;;;;5070005;28;20446;-68
2022/11/09 10:14:43;;;;;;;1999.90;999.90;;;14.20;99.90;;;;;;5070269;28;20464;-68
2022/11/09 10:17:22;;;;;;;1999.90;999.90;;;14.30;99.90;;;;;;5070675;28;20442;-68
2022/11/09 10:20:02;;;;;;;1999.90;999.90;;;14.40;99.90;;;;;;5069917;28;20469;-68
2022/11/09 10:22:38;;;;;;;1999.90;999.90;;;14.70;99.90;;;;;;5069830;28;21027;-68
2022/11/09 10:25:14;;;;;;;1999.90;999.90;;;14.90;99.90;;;;;;5069834;28;20450;-68
2022/11/09 10:27:45;;;;;;;1999.90;999.90;;;15.10;99.90;;;;;;5070439;28;20447;-69
2022/11/09 10:30:15;;;;;;;1999.90;999.90;;;15.30;99.90;;;;;;5070621;28;20463;-71
2022/11/09 10:32:45;;;;;;;1999.90;999.90;;;15.40;99.90;;;;;;5080246;28;20450;-71
2022/11/09 10:35:19;;;;;;;1999.90;999.90;;;15.50;99.90;;;;;;5090318;28;20974;-72
2022/11/09 10:37:48;;;;;;;1999.90;999.90;;;15.60;99.90;;;;;;5090470;28;20446;-73
2022/11/09 10:40:19;;;;;;;1999.90;999.90;;;15.70;99.90;;;;;;5089762;28;20551;-71
2022/11/09 10:42:50;;;;;;;1999.90;999.90;;;15.90;99.90;;;;;;5089569;28;20532;-72
2022/11/09 10:45:26;;;;;;;1999.90;999.90;;;16.10;99.90;;;;;;5090160;28;20462;-72
2022/11/09 10:47:55;;;;;;;1999.90;999.90;;;16.20;99.90;;;;;;5089901;28;21023;-72
2022/11/09 10:50:27;;;;;;;1999.90;999.90;;;16.30;99.90;;;;;;5093866;28;20465;-73
2022/11/09 10:53:07;;;;;;;1999.90;999.90;;;16.50;99.90;;;;;;5087152;28;20463;-74
2022/11/09 10:55:35;;;;;;;1999.90;999.90;;;16.60;99.90;;;;;;5075316;28;20835;-74
2022/11/09 10:58:14;;;;;;;1999.90;999.90;;;16.80;99.90;;;;;;5075277;28;20450;-73
2022/11/09 11:00:59;;;;;;;1999.90;999.90;;;16.90;99.90;;;;;;5075895;28;20483;-73
2022/11/09 11:03:29;;;;;;;1999.90;999.90;;;17.10;99.90;;;;;;5075420;28;20447;-74
2022/11/09 11:06:00;;;;;;;1999.90;999.90;;;17.10;99.90;;;;;;5074904;28;20475;-74
2022/11/09 11:08:39;;;;;;;1999.90;999.90;;;17.10;99.90;;;;;;5074942;28;20449;-72
2022/11/09 11:11:21;;;;;;;1999.90;999.90;;;17.20;99.90;;;;;;5086285;28;20473;-74
2022/11/09 11:13:49;;;;;;;1999.90;999.90;;;17.30;99.90;;;;;;5095399;28;20438;-73
2022/11/09 11:16:26;;;;;;;1999.90;999.90;;;17.30;99.90;;;;;;5096201;28;20469;-73
2022/11/09 11:18:55;;;;;;;1999.90;999.90;;;17.40;99.90;;;;;;5095317;28;20954;-74
2022/11/09 11:21:24;;;;;;;1999.90;999.90;;;17.40;99.90;;;;;;5094997;28;20490;-74
2022/11/09 11:24:15;;;;;;;1999.90;999.90;;;17.40;99.90;;;;;;5095422;28;20476;-73
2022/11/09 11:26:57;;;;;;;1999.90;999.90;;;17.50;99.90;;;;;;5094880;28;20442;-72
2022/11/09 11:29:43;;;;;;;1999.90;999.90;;;17.60;99.90;;;;;;5095538;28;20744;-73
2022/11/09 11:32:14;;;;;;;1999.90;999.90;;;17.70;99.90;;;;;;5095031;28;20445;-73
2022/11/09 11:34:43;;;;;;;1999.90;999.90;;;17.80;99.90;;;;;;5095230;28;20464;-71
2022/11/09 11:37:43;;;;;;;1999.90;999.90;;;17.70;99.90;;;;;;5095351;28;20453;-72
2022/11/09 11:40:18;;;;;;;1999.90;999.90;;;17.70;99.90;;;;;;5083996;28;20473;-72
2022/11/09 11:43:14;;;;;;;1999.90;999.90;;;17.60;99.90;;;;;;5095064;28;20456;-71
2022/11/09 11:45:43;;;;;;;1999.90;999.90;;;17.50;99.90;;;;;;5093808;28;20458;-70
2022/11/09 11:48:32;;;;;;;1999.90;999.90;;;17.40;99.90;;;;;;5094904;28;20441;-72
2022/11/09 11:51:06;;;;;;;1999.90;999.90;;;17.30;99.90;;;;;;5095072;28;20492;-71
2022/11/09 11:53:48;;;;;;;1999.90;999.90;;;17.20;99.90;;;;;;5096105;28;21254;-71
2022/11/09 11:56:22;;;;;;;1999.90;999.90;;;17.10;99.90;;;;;;5099834;28;20446;-75
2022/11/09 11:59:02;;;;;;;1999.90;999.90;;;17.00;99.90;;;;;;5096905;28;20434;-78
2022/11/09 12:01:39;;;;;;;1999.90;999.90;;;17.10;99.90;;;;;;5096013;28;20489;-73
2022/11/09 12:04:21;;;;;;;1999.90;999.90;;;17.10;99.90;;;;;;5085765;28;20867;-73
2022/11/09 12:06:58;;;;;;;1999.90;999.90;;;17.10;99.90;;;;;;5092595;28;20950;-73
2022/11/09 12:09:40;;;;;;;1999.90;999.90;;;17.20;99.90;;;;;;5092918;28;20947;-72
2022/11/09 12:12:14;;;;;;;1999.90;999.90;;;17.30;99.90;;;;;;5092968;28;20512;-72